sensor_id;sensor_type;location;lat;lon;timestamp;P1;durP1;ratioP1;P2;durP2;ratioP2
58621;SDS011;44389;51.578;5.456;2024-03-06T00:01:31;0.25;;;0.25;;
58621;SDS011;44389;51.578;5.456;2024-03-06T00:03:56;0.40;;;0.40;;
58621;SDS011;44389;51.578;5.456;2024-03-06T00:06:22;0.30;;;0.30;;
58621;SDS011;44389;51.578;5.456;2024-03-06T00:08:48;0.30;;;0.30;;
58621;SDS011;44389;51.578;5.456;2024-03-06T00:11:13;0.40;;;0.40;;
58621;SDS011;44389;51.578;5.456;2024-03-06T00:13:38;0.30;;;0.30;;
58621;SDS011;44389;51.578;5.456;2024-03-06T00:16:04;0.25;;;0.25;;
58621;SDS011;44389;51.578;5.456;2024-03-06T00:18:29;0.30;;;0.30;;
58621;SDS011;44389;51.578;5.456;2024-03-06T00:20:54;0.40;;;0.40;;
58621;SDS011;44389;51.578;5.456;2024-03-06T00:23:19;0.35;;;0.35;;
58621;SDS011;44389;51.578;5.456;2024-03-06T00:25:45;0.30;;;0.30;;
58621;SDS011;44389;51.578;5.456;2024-03-06T00:28:10;0.30;;;0.30;;
58621;SDS011;44389;51.578;5.456;2024-03-06T00:30:35;0.30;;;0.30;;
58621;SDS011;44389;51.578;5.456;2024-03-06T00:33:01;0.35;;;0.35;;
58621;SDS011;44389;51.578;5.456;2024-03-06T00:35:26;0.40;;;0.40;;
58621;SDS011;44389;51.578;5.456;2024-03-06T00:37:53;0.30;;;0.30;;
58621;SDS011;44389;51.578;5.456;2024-03-06T00:40:19;0.30;;;0.30;;
58621;SDS011;44389;51.578;5.456;2024-03-06T00:42:44;0.30;;;0.30;;
58621;SDS011;44389;51.578;5.456;2024-03-06T00:45:10;0.40;;;0.40;;
58621;SDS011;44389;51.578;5.456;2024-03-06T00:47:35;0.40;;;0.40;;
58621;SDS011;44389;51.578;5.456;2024-03-06T00:50:01;0.30;;;0.30;;
58621;SDS011;44389;51.578;5.456;2024-03-06T00:52:26;0.40;;;0.40;;
58621;SDS011;44389;51.578;5.456;2024-03-06T00:54:52;0.50;;;0.50;;
58621;SDS011;44389;51.578;5.456;2024-03-06T00:57:17;0.40;;;0.40;;
58621;SDS011;44389;51.578;5.456;2024-03-06T00:59:42;0.40;;;0.40;;
58621;SDS011;44389;51.578;5.456;2024-03-06T01:02:08;0.35;;;0.35;;
58621;SDS011;44389;51.578;5.456;2024-03-06T01:04:33;0.38;;;0.38;;
58621;SDS011;44389;51.578;5.456;2024-03-06T01:06:58;0.40;;;0.40;;
58621;SDS011;44389;51.578;5.456;2024-03-06T01:09:23;0.40;;;0.40;;
58621;SDS011;44389;51.578;5.456;2024-03-06T01:11:49;0.40;;;0.40;;
58621;SDS011;44389;51.578;5.456;2024-03-06T01:14:15;0.30;;;0.30;;
58621;SDS011;44389;51.578;5.456;2024-03-06T01:16:41;0.50;;;0.50;;
58621;SDS011;44389;51.578;5.456;2024-03-06T01:19:06;0.50;;;0.50;;
58621;SDS011;44389;51.578;5.456;2024-03-06T01:21:32;0.50;;;0.50;;
58621;SDS011;44389;51.578;5.456;2024-03-06T01:23:59;0.50;;;0.50;;
58621;SDS011;44389;51.578;5.456;2024-03-06T01:26:24;0.30;;;0.30;;
58621;SDS011;44389;51.578;5.456;2024-03-06T01:28:50;0.40;;;0.40;;
58621;SDS011;44389;51.578;5.456;2024-03-06T01:31:15;0.40;;;0.40;;
58621;SDS011;44389;51.578;5.456;2024-03-06T01:33:40;0.40;;;0.40;;
58621;SDS011;44389;51.578;5.456;2024-03-06T01:36:06;0.40;;;0.40;;
58621;SDS011;44389;51.578;5.456;2024-03-06T01:38:31;0.50;;;0.50;;
58621;SDS011;44389;51.578;5.456;2024-03-06T01:40:56;0.30;;;0.30;;
58621;SDS011;44389;51.578;5.456;2024-03-06T01:43:23;0.40;;;0.40;;
58621;SDS011;44389;51.578;5.456;2024-03-06T01:45:49;0.30;;;0.30;;
58621;SDS011;44389;51.578;5.456;2024-03-06T01:48:26;0.40;;;0.40;;
58621;SDS011;44389;51.578;5.456;2024-03-06T01:50:53;0.40;;;0.40;;
58621;SDS011;44389;51.578;5.456;2024-03-06T01:55:46;0.40;;;0.40;;
58621;SDS011;44389;51.578;5.456;2024-03-06T01:58:13;0.40;;;0.40;;
58621;SDS011;44389;51.578;5.456;2024-03-06T02:00:38;0.40;;;0.40;;
58621;SDS011;44389;51.578;5.456;2024-03-06T02:03:04;0.40;;;0.40;;
58621;SDS011;44389;51.578;5.456;2024-03-06T02:05:30;0.32;;;0.32;;
58621;SDS011;44389;51.578;5.456;2024-03-06T02:07:57;0.40;;;0.40;;
58621;SDS011;44389;51.578;5.456;2024-03-06T02:10:27;0.40;;;0.40;;
58621;SDS011;44389;51.578;5.456;2024-03-06T02:12:53;0.50;;;0.50;;
58621;SDS011;44389;51.578;5.456;2024-03-06T02:15:19;0.40;;;0.40;;
58621;SDS011;44389;51.578;5.456;2024-03-06T02:17:45;0.40;;;0.40;;
58621;SDS011;44389;51.578;5.456;2024-03-06T02:20:11;0.40;;;0.40;;
58621;SDS011;44389;51.578;5.456;2024-03-06T02:25:04;0.40;;;0.40;;
58621;SDS011;44389;51.578;5.456;2024-03-06T02:27:31;0.35;;;0.35;;
58621;SDS011;44389;51.578;5.456;2024-03-06T02:29:57;0.30;;;0.30;;
58621;SDS011;44389;51.578;5.456;2024-03-06T02:32:23;0.40;;;0.40;;
58621;SDS011;44389;51.578;5.456;2024-03-06T02:34:49;0.35;;;0.35;;
58621;SDS011;44389;51.578;5.456;2024-03-06T02:37:15;0.30;;;0.30;;
58621;SDS011;44389;51.578;5.456;2024-03-06T02:39:40;0.30;;;0.30;;
58621;SDS011;44389;51.578;5.456;2024-03-06T02:42:05;0.30;;;0.30;;
58621;SDS011;44389;51.578;5.456;2024-03-06T02:44:32;0.30;;;0.30;;
58621;SDS011;44389;51.578;5.456;2024-03-06T02:46:58;0.40;;;0.40;;
58621;SDS011;44389;51.578;5.456;2024-03-06T02:49:24;0.40;;;0.40;;
58621;SDS011;44389;51.578;5.456;2024-03-06T02:51:49;0.32;;;0.32;;
58621;SDS011;44389;51.578;5.456;2024-03-06T02:54:14;0.30;;;0.30;;
58621;SDS011;44389;51.578;5.456;2024-03-06T02:56:40;0.30;;;0.30;;
58621;SDS011;44389;51.578;5.456;2024-03-06T02:59:05;0.30;;;0.30;;
58621;SDS011;44389;51.578;5.456;2024-03-06T03:01:30;0.35;;;0.35;;
58621;SDS011;44389;51.578;5.456;2024-03-06T03:03:56;0.40;;;0.40;;
58621;SDS011;44389;51.578;5.456;2024-03-06T03:06:21;0.30;;;0.30;;
58621;SDS011;44389;51.578;5.456;2024-03-06T03:08:49;0.40;;;0.40;;
58621;SDS011;44389;51.578;5.456;2024-03-06T03:11:14;0.40;;;0.40;;
58621;SDS011;44389;51.578;5.456;2024-03-06T03:13:40;0.40;;;0.40;;
58621;SDS011;44389;51.578;5.456;2024-03-06T03:16:06;0.40;;;0.40;;
58621;SDS011;44389;51.578;5.456;2024-03-06T03:18:31;0.40;;;0.40;;
58621;SDS011;44389;51.578;5.456;2024-03-06T03:20:57;0.30;;;0.30;;
58621;SDS011;44389;51.578;5.456;2024-03-06T03:23:22;0.40;;;0.40;;
58621;SDS011;44389;51.578;5.456;2024-03-06T03:25:48;0.30;;;0.30;;
58621;SDS011;44389;51.578;5.456;2024-03-06T03:28:14;0.30;;;0.30;;
58621;SDS011;44389;51.578;5.456;2024-03-06T03:30:39;0.40;;;0.40;;
58621;SDS011;44389;51.578;5.456;2024-03-06T03:33:05;0.40;;;0.40;;
58621;SDS011;44389;51.578;5.456;2024-03-06T03:35:30;0.40;;;0.40;;
58621;SDS011;44389;51.578;5.456;2024-03-06T03:37:56;0.43;;;0.43;;
58621;SDS011;44389;51.578;5.456;2024-03-06T03:40:22;0.30;;;0.30;;
58621;SDS011;44389;51.578;5.456;2024-03-06T03:42:47;0.40;;;0.40;;
58621;SDS011;44389;51.578;5.456;2024-03-06T03:45:13;0.40;;;0.40;;
58621;SDS011;44389;51.578;5.456;2024-03-06T03:47:39;0.40;;;0.40;;
58621;SDS011;44389;51.578;5.456;2024-03-06T03:50:08;0.40;;;0.40;;
58621;SDS011;44389;51.578;5.456;2024-03-06T03:52:33;0.40;;;0.40;;
58621;SDS011;44389;51.578;5.456;2024-03-06T03:54:59;0.40;;;0.40;;
58621;SDS011;44389;51.578;5.456;2024-03-06T03:57:24;0.40;;;0.40;;
58621;SDS011;44389;51.578;5.456;2024-03-06T03:59:50;0.30;;;0.30;;
58621;SDS011;44389;51.578;5.456;2024-03-06T04:02:16;0.40;;;0.40;;
58621;SDS011;44389;51.578;5.456;2024-03-06T04:04:42;0.40;;;0.40;;
58621;SDS011;44389;51.578;5.456;2024-03-06T04:07:07;0.40;;;0.40;;
58621;SDS011;44389;51.578;5.456;2024-03-06T04:09:32;0.40;;;0.40;;
58621;SDS011;44389;51.578;5.456;2024-03-06T04:12:01;0.40;;;0.40;;
58621;SDS011;44389;51.578;5.456;2024-03-06T04:14:27;0.40;;;0.40;;
58621;SDS011;44389;51.578;5.456;2024-03-06T04:16:53;0.30;;;0.30;;
58621;SDS011;44389;51.578;5.456;2024-03-06T04:19:18;0.40;;;0.40;;
58621;SDS011;44389;51.578;5.456;2024-03-06T04:21:43;0.43;;;0.43;;
58621;SDS011;44389;51.578;5.456;2024-03-06T04:24:09;0.30;;;0.30;;
58621;SDS011;44389;51.578;5.456;2024-03-06T04:26:34;0.40;;;0.40;;
58621;SDS011;44389;51.578;5.456;2024-03-06T04:29:00;0.40;;;0.40;;
58621;SDS011;44389;51.578;5.456;2024-03-06T04:31:25;0.43;;;0.43;;
58621;SDS011;44389;51.578;5.456;2024-03-06T04:33:51;0.40;;;0.40;;
58621;SDS011;44389;51.578;5.456;2024-03-06T04:36:16;0.30;;;0.30;;
58621;SDS011;44389;51.578;5.456;2024-03-06T04:38:41;0.40;;;0.40;;
58621;SDS011;44389;51.578;5.456;2024-03-06T04:41:07;0.50;;;0.50;;
58621;SDS011;44389;51.578;5.456;2024-03-06T04:43:32;0.40;;;0.40;;
58621;SDS011;44389;51.578;5.456;2024-03-06T04:45:58;0.40;;;0.40;;
58621;SDS011;44389;51.578;5.456;2024-03-06T04:48:23;0.40;;;0.40;;
58621;SDS011;44389;51.578;5.456;2024-03-06T04:50:48;0.40;;;0.40;;
58621;SDS011;44389;51.578;5.456;2024-03-06T04:53:14;0.30;;;0.30;;
58621;SDS011;44389;51.578;5.456;2024-03-06T04:55:40;0.43;;;0.43;;
58621;SDS011;44389;51.578;5.456;2024-03-06T04:58:06;0.40;;;0.40;;
58621;SDS011;44389;51.578;5.456;2024-03-06T05:00:31;0.30;;;0.30;;
58621;SDS011;44389;51.578;5.456;2024-03-06T05:02:57;0.40;;;0.40;;
58621;SDS011;44389;51.578;5.456;2024-03-06T05:05:22;0.40;;;0.40;;
58621;SDS011;44389;51.578;5.456;2024-03-06T05:07:48;0.40;;;0.40;;
58621;SDS011;44389;51.578;5.456;2024-03-06T05:10:13;0.50;;;0.50;;
58621;SDS011;44389;51.578;5.456;2024-03-06T05:12:40;0.32;;;0.32;;
58621;SDS011;44389;51.578;5.456;2024-03-06T05:15:05;0.40;;;0.40;;
58621;SDS011;44389;51.578;5.456;2024-03-06T05:17:31;0.40;;;0.40;;
58621;SDS011;44389;51.578;5.456;2024-03-06T05:19:57;0.40;;;0.40;;
58621;SDS011;44389;51.578;5.456;2024-03-06T05:22:22;0.43;;;0.43;;
58621;SDS011;44389;51.578;5.456;2024-03-06T05:24:48;0.40;;;0.40;;
58621;SDS011;44389;51.578;5.456;2024-03-06T05:27:13;0.50;;;0.50;;
58621;SDS011;44389;51.578;5.456;2024-03-06T05:29:41;0.40;;;0.40;;
58621;SDS011;44389;51.578;5.456;2024-03-06T05:32:07;0.40;;;0.40;;
58621;SDS011;44389;51.578;5.456;2024-03-06T05:34:33;0.40;;;0.40;;
58621;SDS011;44389;51.578;5.456;2024-03-06T05:36:59;0.50;;;0.50;;
58621;SDS011;44389;51.578;5.456;2024-03-06T05:39:24;0.50;;;0.50;;
58621;SDS011;44389;51.578;5.456;2024-03-06T05:41:50;0.50;;;0.50;;
58621;SDS011;44389;51.578;5.456;2024-03-06T05:44:15;0.47;;;0.47;;
58621;SDS011;44389;51.578;5.456;2024-03-06T05:46:40;0.40;;;0.40;;
58621;SDS011;44389;51.578;5.456;2024-03-06T05:49:06;0.40;;;0.40;;
58621;SDS011;44389;51.578;5.456;2024-03-06T05:51:31;0.35;;;0.35;;
58621;SDS011;44389;51.578;5.456;2024-03-06T05:53:56;0.40;;;0.40;;
58621;SDS011;44389;51.578;5.456;2024-03-06T05:56:22;0.40;;;0.40;;
58621;SDS011;44389;51.578;5.456;2024-03-06T05:58:47;0.30;;;0.30;;
58621;SDS011;44389;51.578;5.456;2024-03-06T06:01:15;0.40;;;0.40;;
58621;SDS011;44389;51.578;5.456;2024-03-06T06:03:43;0.30;;;0.30;;
58621;SDS011;44389;51.578;5.456;2024-03-06T06:06:09;0.40;;;0.40;;
58621;SDS011;44389;51.578;5.456;2024-03-06T06:08:34;0.40;;;0.40;;
58621;SDS011;44389;51.578;5.456;2024-03-06T06:11:00;0.40;;;0.40;;
58621;SDS011;44389;51.578;5.456;2024-03-06T06:13:25;0.50;;;0.50;;
58621;SDS011;44389;51.578;5.456;2024-03-06T06:15:50;0.40;;;0.40;;
58621;SDS011;44389;51.578;5.456;2024-03-06T06:18:16;0.40;;;0.40;;
58621;SDS011;44389;51.578;5.456;2024-03-06T06:20:41;0.30;;;0.30;;
58621;SDS011;44389;51.578;5.456;2024-03-06T06:23:07;0.40;;;0.40;;
58621;SDS011;44389;51.578;5.456;2024-03-06T06:25:33;0.40;;;0.40;;
58621;SDS011;44389;51.578;5.456;2024-03-06T06:27:58;0.40;;;0.40;;
58621;SDS011;44389;51.578;5.456;2024-03-06T06:30:24;0.40;;;0.40;;
58621;SDS011;44389;51.578;5.456;2024-03-06T06:32:49;0.40;;;0.40;;
58621;SDS011;44389;51.578;5.456;2024-03-06T06:35:14;0.40;;;0.40;;
58621;SDS011;44389;51.578;5.456;2024-03-06T06:37:40;0.38;;;0.38;;
58621;SDS011;44389;51.578;5.456;2024-03-06T06:40:06;0.40;;;0.40;;
58621;SDS011;44389;51.578;5.456;2024-03-06T06:42:33;0.32;;;0.32;;
58621;SDS011;44389;51.578;5.456;2024-03-06T06:44:59;0.40;;;0.40;;
58621;SDS011;44389;51.578;5.456;2024-03-06T06:47:25;0.30;;;0.30;;
58621;SDS011;44389;51.578;5.456;2024-03-06T06:49:51;0.40;;;0.40;;
58621;SDS011;44389;51.578;5.456;2024-03-06T06:52:16;0.50;;;0.50;;
58621;SDS011;44389;51.578;5.456;2024-03-06T06:54:41;0.50;;;0.50;;
58621;SDS011;44389;51.578;5.456;2024-03-06T06:57:07;0.38;;;0.38;;
58621;SDS011;44389;51.578;5.456;2024-03-06T06:59:33;0.50;;;0.50;;
58621;SDS011;44389;51.578;5.456;2024-03-06T07:01:59;0.40;;;0.40;;
58621;SDS011;44389;51.578;5.456;2024-03-06T07:04:25;0.40;;;0.40;;
58621;SDS011;44389;51.578;5.456;2024-03-06T07:06:50;0.45;;;0.45;;
58621;SDS011;44389;51.578;5.456;2024-03-06T07:09:16;0.40;;;0.40;;
58621;SDS011;44389;51.578;5.456;2024-03-06T07:11:41;0.50;;;0.50;;
58621;SDS011;44389;51.578;5.456;2024-03-06T07:14:07;0.40;;;0.40;;
58621;SDS011;44389;51.578;5.456;2024-03-06T07:16:33;0.40;;;0.40;;
58621;SDS011;44389;51.578;5.456;2024-03-06T07:18:58;0.40;;;0.40;;
58621;SDS011;44389;51.578;5.456;2024-03-06T07:21:24;0.40;;;0.40;;
58621;SDS011;44389;51.578;5.456;2024-03-06T07:23:50;0.40;;;0.40;;
58621;SDS011;44389;51.578;5.456;2024-03-06T07:26:15;0.32;;;0.32;;
58621;SDS011;44389;51.578;5.456;2024-03-06T07:28:40;0.40;;;0.40;;
58621;SDS011;44389;51.578;5.456;2024-03-06T07:31:06;0.40;;;0.40;;
58621;SDS011;44389;51.578;5.456;2024-03-06T07:33:31;0.40;;;0.40;;
58621;SDS011;44389;51.578;5.456;2024-03-06T07:35:59;0.30;;;0.30;;
58621;SDS011;44389;51.578;5.456;2024-03-06T07:38:24;0.40;;;0.40;;
58621;SDS011;44389;51.578;5.456;2024-03-06T07:40:49;0.35;;;0.35;;
58621;SDS011;44389;51.578;5.456;2024-03-06T07:43:14;0.50;;;0.50;;
58621;SDS011;44389;51.578;5.456;2024-03-06T07:45:40;0.35;;;0.35;;
58621;SDS011;44389;51.578;5.456;2024-03-06T07:48:06;0.40;;;0.40;;
58621;SDS011;44389;51.578;5.456;2024-03-06T07:50:31;0.40;;;0.40;;
58621;SDS011;44389;51.578;5.456;2024-03-06T07:52:56;0.40;;;0.40;;
58621;SDS011;44389;51.578;5.456;2024-03-06T07:55:22;0.40;;;0.40;;
58621;SDS011;44389;51.578;5.456;2024-03-06T07:57:47;0.40;;;0.40;;
58621;SDS011;44389;51.578;5.456;2024-03-06T08:00:13;0.38;;;0.38;;
58621;SDS011;44389;51.578;5.456;2024-03-06T08:02:44;0.40;;;0.40;;
58621;SDS011;44389;51.578;5.456;2024-03-06T08:05:14;0.30;;;0.30;;
58621;SDS011;44389;51.578;5.456;2024-03-06T08:07:41;0.30;;;0.30;;
58621;SDS011;44389;51.578;5.456;2024-03-06T08:10:10;0.40;;;0.40;;
58621;SDS011;44389;51.578;5.456;2024-03-06T08:12:39;0.30;;;0.30;;
58621;SDS011;44389;51.578;5.456;2024-03-06T08:15:08;0.40;;;0.40;;
58621;SDS011;44389;51.578;5.456;2024-03-06T08:17:35;0.30;;;0.30;;
58621;SDS011;44389;51.578;5.456;2024-03-06T08:20:01;0.38;;;0.38;;
58621;SDS011;44389;51.578;5.456;2024-03-06T08:22:31;0.30;;;0.30;;
58621;SDS011;44389;51.578;5.456;2024-03-06T08:24:56;0.38;;;0.38;;
58621;SDS011;44389;51.578;5.456;2024-03-06T08:27:21;0.30;;;0.30;;
58621;SDS011;44389;51.578;5.456;2024-03-06T08:29:47;0.40;;;0.40;;
58621;SDS011;44389;51.578;5.456;2024-03-06T08:32:13;0.30;;;0.30;;
58621;SDS011;44389;51.578;5.456;2024-03-06T08:34:38;0.40;;;0.40;;
58621;SDS011;44389;51.578;5.456;2024-03-06T08:37:04;0.20;;;0.20;;
58621;SDS011;44389;51.578;5.456;2024-03-06T08:39:30;0.30;;;0.30;;
58621;SDS011;44389;51.578;5.456;2024-03-06T08:41:56;0.30;;;0.30;;
58621;SDS011;44389;51.578;5.456;2024-03-06T08:44:23;0.30;;;0.30;;
58621;SDS011;44389;51.578;5.456;2024-03-06T08:46:48;0.30;;;0.30;;
58621;SDS011;44389;51.578;5.456;2024-03-06T08:49:13;0.30;;;0.30;;
58621;SDS011;44389;51.578;5.456;2024-03-06T08:51:39;0.30;;;0.30;;
58621;SDS011;44389;51.578;5.456;2024-03-06T08:54:04;0.30;;;0.30;;
58621;SDS011;44389;51.578;5.456;2024-03-06T08:56:29;0.28;;;0.28;;
58621;SDS011;44389;51.578;5.456;2024-03-06T08:58:55;0.25;;;0.25;;
58621;SDS011;44389;51.578;5.456;2024-03-06T09:01:20;0.20;;;0.20;;
58621;SDS011;44389;51.578;5.456;2024-03-06T09:03:45;0.30;;;0.30;;
58621;SDS011;44389;51.578;5.456;2024-03-06T09:06:10;0.40;;;0.40;;
58621;SDS011;44389;51.578;5.456;2024-03-06T09:08:37;0.20;;;0.20;;
58621;SDS011;44389;51.578;5.456;2024-03-06T09:11:03;0.30;;;0.30;;
58621;SDS011;44389;51.578;5.456;2024-03-06T09:13:28;0.30;;;0.30;;
58621;SDS011;44389;51.578;5.456;2024-03-06T09:15:53;0.30;;;0.30;;
58621;SDS011;44389;51.578;5.456;2024-03-06T09:18:19;0.30;;;0.30;;
58621;SDS011;44389;51.578;5.456;2024-03-06T09:20:44;0.30;;;0.30;;
58621;SDS011;44389;51.578;5.456;2024-03-06T09:23:09;0.30;;;0.30;;
58621;SDS011;44389;51.578;5.456;2024-03-06T09:25:34;0.30;;;0.30;;
58621;SDS011;44389;51.578;5.456;2024-03-06T09:28:00;0.38;;;0.38;;
58621;SDS011;44389;51.578;5.456;2024-03-06T09:30:29;0.22;;;0.22;;
58621;SDS011;44389;51.578;5.456;2024-03-06T09:32:54;0.30;;;0.30;;
58621;SDS011;44389;51.578;5.456;2024-03-06T09:35:20;0.20;;;0.20;;
58621;SDS011;44389;51.578;5.456;2024-03-06T09:37:45;0.30;;;0.30;;
58621;SDS011;44389;51.578;5.456;2024-03-06T09:40:11;0.30;;;0.30;;
58621;SDS011;44389;51.578;5.456;2024-03-06T09:42:45;0.30;;;0.30;;
58621;SDS011;44389;51.578;5.456;2024-03-06T09:45:10;0.30;;;0.30;;
58621;SDS011;44389;51.578;5.456;2024-03-06T09:47:36;0.20;;;0.20;;
58621;SDS011;44389;51.578;5.456;2024-03-06T09:50:03;0.20;;;0.20;;
58621;SDS011;44389;51.578;5.456;2024-03-06T09:52:33;0.30;;;0.30;;
58621;SDS011;44389;51.578;5.456;2024-03-06T09:54:59;0.20;;;0.20;;
58621;SDS011;44389;51.578;5.456;2024-03-06T09:57:25;0.20;;;0.20;;
58621;SDS011;44389;51.578;5.456;2024-03-06T09:59:51;0.20;;;0.20;;
58621;SDS011;44389;51.578;5.456;2024-03-06T10:02:28;0.20;;;0.20;;
58621;SDS011;44389;51.578;5.456;2024-03-06T10:04:59;0.15;;;0.15;;
58621;SDS011;44389;51.578;5.456;2024-03-06T10:07:24;0.20;;;0.20;;
58621;SDS011;44389;51.578;5.456;2024-03-06T10:09:52;0.20;;;0.20;;
58621;SDS011;44389;51.578;5.456;2024-03-06T10:12:17;0.15;;;0.15;;
58621;SDS011;44389;51.578;5.456;2024-03-06T10:14:50;0.10;;;0.10;;
58621;SDS011;44389;51.578;5.456;2024-03-06T10:17:22;0.10;;;0.10;;
58621;SDS011;44389;51.578;5.456;2024-03-06T10:19:47;0.10;;;0.10;;
58621;SDS011;44389;51.578;5.456;2024-03-06T10:22:16;0.10;;;0.10;;
58621;SDS011;44389;51.578;5.456;2024-03-06T10:24:42;0.10;;;0.10;;
58621;SDS011;44389;51.578;5.456;2024-03-06T10:27:07;0.10;;;0.10;;
58621;SDS011;44389;51.578;5.456;2024-03-06T10:29:32;0.10;;;0.10;;
58621;SDS011;44389;51.578;5.456;2024-03-06T10:31:58;0.10;;;0.10;;
58621;SDS011;44389;51.578;5.456;2024-03-06T10:34:24;0.10;;;0.10;;
58621;SDS011;44389;51.578;5.456;2024-03-06T10:36:54;0.20;;;0.20;;
58621;SDS011;44389;51.578;5.456;2024-03-06T10:39:21;0.10;;;0.10;;
58621;SDS011;44389;51.578;5.456;2024-03-06T10:41:51;0.10;;;0.10;;
58621;SDS011;44389;51.578;5.456;2024-03-06T10:44:23;0.10;;;0.10;;
58621;SDS011;44389;51.578;5.456;2024-03-06T10:46:58;0.10;;;0.10;;
58621;SDS011;44389;51.578;5.456;2024-03-06T10:49:28;0.10;;;0.10;;
58621;SDS011;44389;51.578;5.456;2024-03-06T10:52:01;0.10;;;0.10;;
58621;SDS011;44389;51.578;5.456;2024-03-06T10:54:30;0.10;;;0.10;;
58621;SDS011;44389;51.578;5.456;2024-03-06T10:56:57;0.10;;;0.10;;
58621;SDS011;44389;51.578;5.456;2024-03-06T10:59:26;0.10;;;0.10;;
58621;SDS011;44389;51.578;5.456;2024-03-06T11:01:56;0.10;;;0.10;;
58621;SDS011;44389;51.578;5.456;2024-03-06T11:04:27;0.10;;;0.10;;
58621;SDS011;44389;51.578;5.456;2024-03-06T11:06:57;0.00;;;0.00;;
58621;SDS011;44389;51.578;5.456;2024-03-06T11:09:26;0.00;;;0.00;;
58621;SDS011;44389;51.578;5.456;2024-03-06T11:11:52;0.10;;;0.10;;
58621;SDS011;44389;51.578;5.456;2024-03-06T11:14:18;0.10;;;0.10;;
58621;SDS011;44389;51.578;5.456;2024-03-06T11:17:02;0.10;;;0.10;;
58621;SDS011;44389;51.578;5.456;2024-03-06T11:28:21;0.10;;;0.10;;
58621;SDS011;44389;51.578;5.456;2024-03-06T11:30:59;0.10;;;0.10;;
58621;SDS011;44389;51.578;5.456;2024-03-06T11:38:51;0.10;;;0.10;;
58621;SDS011;44389;51.578;5.456;2024-03-06T11:41:27;0.10;;;0.10;;
58621;SDS011;44389;51.578;5.456;2024-03-06T11:43:54;0.10;;;0.10;;
58621;SDS011;44389;51.578;5.456;2024-03-06T11:46:40;0.10;;;0.10;;
58621;SDS011;44389;51.578;5.456;2024-03-06T11:49:14;0.10;;;0.10;;
58621;SDS011;44389;51.578;5.456;2024-03-06T11:51:41;0.20;;;0.20;;
58621;SDS011;44389;51.578;5.456;2024-03-06T11:54:06;0.10;;;0.10;;
58621;SDS011;44389;51.578;5.456;2024-03-06T11:56:32;0.10;;;0.10;;
58621;SDS011;44389;51.578;5.456;2024-03-06T11:58:58;0.10;;;0.10;;
58621;SDS011;44389;51.578;5.456;2024-03-06T12:01:23;0.13;;;0.13;;
58621;SDS011;44389;51.578;5.456;2024-03-06T12:03:49;0.10;;;0.10;;
58621;SDS011;44389;51.578;5.456;2024-03-06T12:06:14;0.20;;;0.20;;
58621;SDS011;44389;51.578;5.456;2024-03-06T12:08:41;0.20;;;0.20;;
58621;SDS011;44389;51.578;5.456;2024-03-06T12:11:07;0.10;;;0.10;;
58621;SDS011;44389;51.578;5.456;2024-03-06T12:13:32;0.20;;;0.20;;
58621;SDS011;44389;51.578;5.456;2024-03-06T12:15:58;0.10;;;0.10;;
58621;SDS011;44389;51.578;5.456;2024-03-06T12:18:24;0.20;;;0.20;;
58621;SDS011;44389;51.578;5.456;2024-03-06T12:20:50;0.20;;;0.20;;
58621;SDS011;44389;51.578;5.456;2024-03-06T12:23:19;0.20;;;0.20;;
58621;SDS011;44389;51.578;5.456;2024-03-06T12:25:48;0.20;;;0.20;;
58621;SDS011;44389;51.578;5.456;2024-03-06T12:28:13;0.20;;;0.20;;
58621;SDS011;44389;51.578;5.456;2024-03-06T12:30:42;0.20;;;0.20;;
58621;SDS011;44389;51.578;5.456;2024-03-06T12:33:11;0.10;;;0.10;;
58621;SDS011;44389;51.578;5.456;2024-03-06T12:35:41;0.10;;;0.10;;
58621;SDS011;44389;51.578;5.456;2024-03-06T12:38:13;0.10;;;0.10;;
58621;SDS011;44389;51.578;5.456;2024-03-06T12:40:39;0.10;;;0.10;;
58621;SDS011;44389;51.578;5.456;2024-03-06T12:43:06;0.10;;;0.10;;
58621;SDS011;44389;51.578;5.456;2024-03-06T12:45:31;0.10;;;0.10;;
58621;SDS011;44389;51.578;5.456;2024-03-06T12:47:57;0.10;;;0.10;;
58621;SDS011;44389;51.578;5.456;2024-03-06T12:50:22;0.10;;;0.10;;
58621;SDS011;44389;51.578;5.456;2024-03-06T12:52:48;0.10;;;0.10;;
58621;SDS011;44389;51.578;5.456;2024-03-06T12:55:13;0.10;;;0.10;;
58621;SDS011;44389;51.578;5.456;2024-03-06T12:57:39;0.10;;;0.10;;
58621;SDS011;44389;51.578;5.456;2024-03-06T13:00:05;0.10;;;0.10;;
58621;SDS011;44389;51.578;5.456;2024-03-06T13:02:40;0.10;;;0.10;;
58621;SDS011;44389;51.578;5.456;2024-03-06T13:05:06;0.10;;;0.10;;
58621;SDS011;44389;51.578;5.456;2024-03-06T13:07:32;0.10;;;0.10;;
58621;SDS011;44389;51.578;5.456;2024-03-06T13:09:57;0.10;;;0.10;;
58621;SDS011;44389;51.578;5.456;2024-03-06T13:12:22;0.10;;;0.10;;
58621;SDS011;44389;51.578;5.456;2024-03-06T13:14:48;0.10;;;0.10;;
58621;SDS011;44389;51.578;5.456;2024-03-06T13:17:13;0.10;;;0.10;;
58621;SDS011;44389;51.578;5.456;2024-03-06T13:19:38;0.10;;;0.10;;
58621;SDS011;44389;51.578;5.456;2024-03-06T13:22:03;0.10;;;0.10;;
58621;SDS011;44389;51.578;5.456;2024-03-06T13:24:31;0.10;;;0.10;;
58621;SDS011;44389;51.578;5.456;2024-03-06T13:26:58;0.20;;;0.20;;
58621;SDS011;44389;51.578;5.456;2024-03-06T13:29:24;0.10;;;0.10;;
58621;SDS011;44389;51.578;5.456;2024-03-06T13:31:49;0.10;;;0.10;;
58621;SDS011;44389;51.578;5.456;2024-03-06T13:34:15;0.10;;;0.10;;
58621;SDS011;44389;51.578;5.456;2024-03-06T13:36:41;0.10;;;0.10;;
58621;SDS011;44389;51.578;5.456;2024-03-06T13:39:06;0.10;;;0.10;;
58621;SDS011;44389;51.578;5.456;2024-03-06T13:41:31;0.10;;;0.10;;
58621;SDS011;44389;51.578;5.456;2024-03-06T13:43:57;0.10;;;0.10;;
58621;SDS011;44389;51.578;5.456;2024-03-06T13:46:22;0.10;;;0.10;;
58621;SDS011;44389;51.578;5.456;2024-03-06T13:48:47;0.10;;;0.10;;
58621;SDS011;44389;51.578;5.456;2024-03-06T13:51:13;0.10;;;0.10;;
58621;SDS011;44389;51.578;5.456;2024-03-06T13:53:38;0.00;;;0.00;;
58621;SDS011;44389;51.578;5.456;2024-03-06T13:56:03;0.10;;;0.10;;
58621;SDS011;44389;51.578;5.456;2024-03-06T13:58:29;0.10;;;0.10;;
58621;SDS011;44389;51.578;5.456;2024-03-06T14:00:55;0.10;;;0.10;;
58621;SDS011;44389;51.578;5.456;2024-03-06T14:03:20;0.10;;;0.10;;
58621;SDS011;44389;51.578;5.456;2024-03-06T14:05:47;0.10;;;0.10;;
58621;SDS011;44389;51.578;5.456;2024-03-06T14:08:12;0.10;;;0.10;;
58621;SDS011;44389;51.578;5.456;2024-03-06T14:10:40;0.10;;;0.10;;
58621;SDS011;44389;51.578;5.456;2024-03-06T14:13:06;0.10;;;0.10;;
58621;SDS011;44389;51.578;5.456;2024-03-06T14:15:32;0.10;;;0.10;;
58621;SDS011;44389;51.578;5.456;2024-03-06T14:17:58;0.10;;;0.10;;
58621;SDS011;44389;51.578;5.456;2024-03-06T14:20:23;0.10;;;0.10;;
58621;SDS011;44389;51.578;5.456;2024-03-06T14:22:49;0.10;;;0.10;;
58621;SDS011;44389;51.578;5.456;2024-03-06T14:25:14;0.10;;;0.10;;
58621;SDS011;44389;51.578;5.456;2024-03-06T14:27:39;0.10;;;0.10;;
58621;SDS011;44389;51.578;5.456;2024-03-06T14:30:05;0.10;;;0.10;;
58621;SDS011;44389;51.578;5.456;2024-03-06T14:32:32;0.10;;;0.10;;
58621;SDS011;44389;51.578;5.456;2024-03-06T14:34:57;0.10;;;0.10;;
58621;SDS011;44389;51.578;5.456;2024-03-06T14:37:22;0.10;;;0.10;;
58621;SDS011;44389;51.578;5.456;2024-03-06T14:39:48;0.10;;;0.10;;
58621;SDS011;44389;51.578;5.456;2024-03-06T14:42:13;0.20;;;0.20;;
58621;SDS011;44389;51.578;5.456;2024-03-06T14:44:40;0.10;;;0.10;;
58621;SDS011;44389;51.578;5.456;2024-03-06T14:47:05;0.10;;;0.10;;
58621;SDS011;44389;51.578;5.456;2024-03-06T14:49:31;0.10;;;0.10;;
58621;SDS011;44389;51.578;5.456;2024-03-06T14:51:56;0.10;;;0.10;;
58621;SDS011;44389;51.578;5.456;2024-03-06T14:54:21;0.20;;;0.20;;
58621;SDS011;44389;51.578;5.456;2024-03-06T14:56:50;0.10;;;0.10;;
58621;SDS011;44389;51.578;5.456;2024-03-06T14:59:16;0.20;;;0.20;;
58621;SDS011;44389;51.578;5.456;2024-03-06T15:01:41;0.10;;;0.10;;